Etusivu
METAR-TAF:

METAR-TAF

Lentoasemat :

Huippuvuorten lentoasema

Longyearbyen, Norja

Leveyspiiri: 78-15N, Pituuspiiri: 015-28E, korkeus merenpinnasta: 2 m

Tämänhetkinen sää

Tämä raportti tehtiin 17 minuuttia sitten, kello 19.50 UTC
Tuuli 11 kn lännestä
Lämpötila 0°C
Kosteus 80%
Ilmanpaine 1024 hPa
Näkyvyys 10 km tai enemmän
Hajanaisia pilviä 1000 ft:n korkeudessa
Hajonneita pilviä 2000 ft:n korkeudessa

METAR: ENSB 241950Z 26011KT 9999 SCT010 BKN020 M00/M03 Q1024 RMK WIND 1400FT 24015KT

Aika: 22:07 (20:07 UTC)

Sääennuste

Ennuste voimassa 24. päivästä klo 18 UTC - 25. päivään klo 18 UTC
Tuuli 12 kn lännestä/lounaasta
Näkyvyys 10 km tai enemmän
Muutamia pilviä 1500 ft:n korkeudessa
Hajonneita pilviä 3000 ft:n korkeudessa
Ajoittain
24. päivästä klo 18 UTC - 25. päivään klo 18 UTC
Hajonneita pilviä 800 ft:n korkeudessa
heikkoa lumisadetta

TAF: ENSB 2418/2518 25012KT 9999 FEW015 BKN030 TEMPO 2418/2518 -SN BKN008

Säähavainnot ja -ennusteet yli 4000 lentoasemalta (METAR- ja TAF-raportit).

Käytössä olevat sääasemat on merkitty karttaan keltaisilla ja punaisilla pisteillä.

Aseta hiiri pisteen päälle nähdäksesi sääaseman nimen.

Klikkaa sitten nähdäksesi säähavainnot ja -ennusteet.

Kartan vaihtaminen: klikkaa mustalla rastilla varustettuja vihreitä pisteitä, niin voit zoomata sisään; viivalla varustettua vihreää pistettä, niin voit zoomata ulos tai vihreitä nuolia, niin pääset viereisille kartoille.


METAR-TAF: